TQK weather

Scott City Municipal Airport
Scott City, Kansas, United States

Public forecast

Using degrees Fahrenheit for public forecast. Weather courtesy of forecast.io.

METAR (pilot weather report)

Closest report is Garden City Regional Airport, 33.7 nm (62.4 km) SSE. Retrieved 2019/08/26 07:54 UTC (22 minutes ago):

KGCK 260754Z AUTO 15008KT 10SM CLR 22/21 A2976 RMK AO2 SLP039 T02170206

TAF (pilot weather forecast)

Closest forecast is Garden City Regional Airport, 33.7 nm (62.4 km) SSE. Retrieved 2019/08/26 06:40 UTC (2 hours ago):

TAF KGCK 260537Z 2606/2706 15009KT P6SM SKC FM261500 35024G35KT P6SM FEW025 FM262100 02017G27KT P6SM SCT040 FM270100 03008KT P6SM SKC